sensor_id;sensor_type;location;lat;lon;timestamp;P1;durP1;ratioP1;P2;durP2;ratioP2
51995;SDS011;38010;53.264;6.592;2023-07-08T00:00:23;0.20;;;0.20;;
51995;SDS011;38010;53.264;6.592;2023-07-08T00:02:49;0.20;;;0.20;;
51995;SDS011;38010;53.264;6.592;2023-07-08T00:05:17;0.20;;;0.20;;
51995;SDS011;38010;53.264;6.592;2023-07-08T00:07:44;0.20;;;0.20;;
51995;SDS011;38010;53.264;6.592;2023-07-08T00:10:17;0.20;;;0.20;;
51995;SDS011;38010;53.264;6.592;2023-07-08T00:12:48;0.20;;;0.20;;
51995;SDS011;38010;53.264;6.592;2023-07-08T00:15:16;0.20;;;0.20;;
51995;SDS011;38010;53.264;6.592;2023-07-08T00:17:42;0.20;;;0.20;;
51995;SDS011;38010;53.264;6.592;2023-07-08T00:20:22;0.20;;;0.20;;
51995;SDS011;38010;53.264;6.592;2023-07-08T00:23:00;0.10;;;0.10;;
51995;SDS011;38010;53.264;6.592;2023-07-08T00:25:26;0.20;;;0.20;;
51995;SDS011;38010;53.264;6.592;2023-07-08T00:27:52;0.20;;;0.20;;
51995;SDS011;38010;53.264;6.592;2023-07-08T00:30:25;0.10;;;0.10;;
51995;SDS011;38010;53.264;6.592;2023-07-08T00:32:53;0.20;;;0.20;;
51995;SDS011;38010;53.264;6.592;2023-07-08T00:35:25;0.20;;;0.20;;
51995;SDS011;38010;53.264;6.592;2023-07-08T00:37:55;0.10;;;0.10;;
51995;SDS011;38010;53.264;6.592;2023-07-08T00:40:27;0.10;;;0.10;;
51995;SDS011;38010;53.264;6.592;2023-07-08T00:42:55;0.10;;;0.10;;
51995;SDS011;38010;53.264;6.592;2023-07-08T00:45:31;0.20;;;0.20;;
51995;SDS011;38010;53.264;6.592;2023-07-08T00:48:28;0.10;;;0.10;;
51995;SDS011;38010;53.264;6.592;2023-07-08T00:50:54;0.20;;;0.20;;
51995;SDS011;38010;53.264;6.592;2023-07-08T00:53:35;0.15;;;0.15;;
51995;SDS011;38010;53.264;6.592;2023-07-08T00:56:03;0.10;;;0.10;;
51995;SDS011;38010;53.264;6.592;2023-07-08T00:58:44;0.20;;;0.20;;
51995;SDS011;38010;53.264;6.592;2023-07-08T01:01:12;0.22;;;0.22;;
51995;SDS011;38010;53.264;6.592;2023-07-08T01:03:48;0.20;;;0.20;;
51995;SDS011;38010;53.264;6.592;2023-07-08T01:06:18;0.20;;;0.20;;
51995;SDS011;38010;53.264;6.592;2023-07-08T01:08:46;0.20;;;0.20;;
51995;SDS011;38010;53.264;6.592;2023-07-08T01:11:15;0.13;;;0.13;;
51995;SDS011;38010;53.264;6.592;2023-07-08T01:13:41;0.10;;;0.10;;
51995;SDS011;38010;53.264;6.592;2023-07-08T01:16:09;0.10;;;0.10;;
51995;SDS011;38010;53.264;6.592;2023-07-08T01:18:34;0.20;;;0.20;;
51995;SDS011;38010;53.264;6.592;2023-07-08T01:21:03;0.20;;;0.20;;
51995;SDS011;38010;53.264;6.592;2023-07-08T01:23:31;0.10;;;0.10;;
51995;SDS011;38010;53.264;6.592;2023-07-08T01:25:59;0.10;;;0.10;;
51995;SDS011;38010;53.264;6.592;2023-07-08T01:28:26;0.10;;;0.10;;
51995;SDS011;38010;53.264;6.592;2023-07-08T01:30:53;0.10;;;0.10;;
51995;SDS011;38010;53.264;6.592;2023-07-08T01:33:20;0.20;;;0.20;;
51995;SDS011;38010;53.264;6.592;2023-07-08T01:35:49;0.20;;;0.20;;
51995;SDS011;38010;53.264;6.592;2023-07-08T01:38:16;0.10;;;0.10;;
51995;SDS011;38010;53.264;6.592;2023-07-08T01:40:48;0.20;;;0.20;;
51995;SDS011;38010;53.264;6.592;2023-07-08T01:43:16;0.20;;;0.20;;
51995;SDS011;38010;53.264;6.592;2023-07-08T01:45:41;0.20;;;0.20;;
51995;SDS011;38010;53.264;6.592;2023-07-08T01:48:09;0.20;;;0.20;;
51995;SDS011;38010;53.264;6.592;2023-07-08T01:51:00;0.30;;;0.30;;
51995;SDS011;38010;53.264;6.592;2023-07-08T01:53:32;0.10;;;0.10;;
51995;SDS011;38010;53.264;6.592;2023-07-08T01:55:58;0.15;;;0.15;;
51995;SDS011;38010;53.264;6.592;2023-07-08T01:58:24;0.20;;;0.20;;
51995;SDS011;38010;53.264;6.592;2023-07-08T02:00:50;0.20;;;0.20;;
51995;SDS011;38010;53.264;6.592;2023-07-08T02:03:16;0.10;;;0.10;;
51995;SDS011;38010;53.264;6.592;2023-07-08T02:05:42;0.10;;;0.10;;
51995;SDS011;38010;53.264;6.592;2023-07-08T02:08:08;0.20;;;0.20;;
51995;SDS011;38010;53.264;6.592;2023-07-08T02:10:34;0.20;;;0.20;;
51995;SDS011;38010;53.264;6.592;2023-07-08T02:13:00;0.10;;;0.10;;
51995;SDS011;38010;53.264;6.592;2023-07-08T02:15:26;0.10;;;0.10;;
51995;SDS011;38010;53.264;6.592;2023-07-08T02:17:52;0.17;;;0.17;;
51995;SDS011;38010;53.264;6.592;2023-07-08T02:20:17;0.20;;;0.20;;
51995;SDS011;38010;53.264;6.592;2023-07-08T02:22:43;0.15;;;0.15;;
51995;SDS011;38010;53.264;6.592;2023-07-08T02:25:09;0.13;;;0.13;;
51995;SDS011;38010;53.264;6.592;2023-07-08T02:27:35;0.20;;;0.20;;
51995;SDS011;38010;53.264;6.592;2023-07-08T02:30:01;0.10;;;0.10;;
51995;SDS011;38010;53.264;6.592;2023-07-08T02:32:27;0.20;;;0.20;;
51995;SDS011;38010;53.264;6.592;2023-07-08T02:34:53;0.10;;;0.10;;
51995;SDS011;38010;53.264;6.592;2023-07-08T02:37:19;0.20;;;0.20;;
51995;SDS011;38010;53.264;6.592;2023-07-08T02:39:44;0.20;;;0.20;;
51995;SDS011;38010;53.264;6.592;2023-07-08T02:42:10;0.20;;;0.20;;
51995;SDS011;38010;53.264;6.592;2023-07-08T02:44:36;0.20;;;0.20;;
51995;SDS011;38010;53.264;6.592;2023-07-08T02:47:01;0.20;;;0.20;;
51995;SDS011;38010;53.264;6.592;2023-07-08T02:49:27;0.17;;;0.17;;
51995;SDS011;38010;53.264;6.592;2023-07-08T02:51:55;0.10;;;0.10;;
51995;SDS011;38010;53.264;6.592;2023-07-08T02:54:20;0.10;;;0.10;;
51995;SDS011;38010;53.264;6.592;2023-07-08T02:56:46;0.20;;;0.20;;
51995;SDS011;38010;53.264;6.592;2023-07-08T02:59:13;0.20;;;0.20;;
51995;SDS011;38010;53.264;6.592;2023-07-08T03:01:39;0.10;;;0.10;;
51995;SDS011;38010;53.264;6.592;2023-07-08T03:04:08;0.10;;;0.10;;
51995;SDS011;38010;53.264;6.592;2023-07-08T03:06:39;0.20;;;0.20;;
51995;SDS011;38010;53.264;6.592;2023-07-08T03:09:06;0.20;;;0.20;;
51995;SDS011;38010;53.264;6.592;2023-07-08T03:11:33;0.20;;;0.20;;
51995;SDS011;38010;53.264;6.592;2023-07-08T03:13:59;0.10;;;0.10;;
51995;SDS011;38010;53.264;6.592;2023-07-08T03:16:24;0.13;;;0.13;;
51995;SDS011;38010;53.264;6.592;2023-07-08T03:18:50;0.10;;;0.10;;
51995;SDS011;38010;53.264;6.592;2023-07-08T03:21:17;0.10;;;0.10;;
51995;SDS011;38010;53.264;6.592;2023-07-08T03:23:47;0.20;;;0.20;;
51995;SDS011;38010;53.264;6.592;2023-07-08T03:26:14;0.15;;;0.15;;
51995;SDS011;38010;53.264;6.592;2023-07-08T03:28:43;0.10;;;0.10;;
51995;SDS011;38010;53.264;6.592;2023-07-08T03:31:09;0.10;;;0.10;;
51995;SDS011;38010;53.264;6.592;2023-07-08T03:33:35;0.10;;;0.10;;
51995;SDS011;38010;53.264;6.592;2023-07-08T03:36:03;0.20;;;0.20;;
51995;SDS011;38010;53.264;6.592;2023-07-08T03:38:29;0.20;;;0.20;;
51995;SDS011;38010;53.264;6.592;2023-07-08T03:40:56;0.20;;;0.20;;
51995;SDS011;38010;53.264;6.592;2023-07-08T03:43:22;0.13;;;0.13;;
51995;SDS011;38010;53.264;6.592;2023-07-08T03:45:48;0.10;;;0.10;;
51995;SDS011;38010;53.264;6.592;2023-07-08T03:48:13;0.10;;;0.10;;
51995;SDS011;38010;53.264;6.592;2023-07-08T03:50:40;0.10;;;0.10;;
51995;SDS011;38010;53.264;6.592;2023-07-08T03:53:05;0.10;;;0.10;;
51995;SDS011;38010;53.264;6.592;2023-07-08T03:55:32;0.10;;;0.10;;
51995;SDS011;38010;53.264;6.592;2023-07-08T03:57:58;0.20;;;0.20;;
51995;SDS011;38010;53.264;6.592;2023-07-08T04:00:23;0.13;;;0.13;;
51995;SDS011;38010;53.264;6.592;2023-07-08T04:02:49;0.17;;;0.17;;
51995;SDS011;38010;53.264;6.592;2023-07-08T04:05:16;0.13;;;0.13;;
51995;SDS011;38010;53.264;6.592;2023-07-08T04:07:43;0.20;;;0.20;;
51995;SDS011;38010;53.264;6.592;2023-07-08T04:10:09;0.20;;;0.20;;
51995;SDS011;38010;53.264;6.592;2023-07-08T04:12:35;0.35;;;0.20;;
51995;SDS011;38010;53.264;6.592;2023-07-08T04:15:03;0.20;;;0.20;;
51995;SDS011;38010;53.264;6.592;2023-07-08T04:17:30;0.20;;;0.20;;
51995;SDS011;38010;53.264;6.592;2023-07-08T04:19:56;0.20;;;0.20;;
51995;SDS011;38010;53.264;6.592;2023-07-08T04:22:22;0.10;;;0.10;;
51995;SDS011;38010;53.264;6.592;2023-07-08T04:24:49;0.10;;;0.10;;
51995;SDS011;38010;53.264;6.592;2023-07-08T04:27:16;0.17;;;0.17;;
51995;SDS011;38010;53.264;6.592;2023-07-08T04:29:43;0.13;;;0.13;;
51995;SDS011;38010;53.264;6.592;2023-07-08T04:32:09;0.13;;;0.13;;
51995;SDS011;38010;53.264;6.592;2023-07-08T04:34:36;0.10;;;0.10;;
51995;SDS011;38010;53.264;6.592;2023-07-08T04:37:01;0.20;;;0.20;;
51995;SDS011;38010;53.264;6.592;2023-07-08T04:39:30;0.10;;;0.10;;
51995;SDS011;38010;53.264;6.592;2023-07-08T04:41:56;0.20;;;0.20;;
51995;SDS011;38010;53.264;6.592;2023-07-08T04:44:23;0.20;;;0.20;;
51995;SDS011;38010;53.264;6.592;2023-07-08T04:46:50;0.10;;;0.10;;
51995;SDS011;38010;53.264;6.592;2023-07-08T04:49:20;0.10;;;0.10;;
51995;SDS011;38010;53.264;6.592;2023-07-08T04:51:47;0.10;;;0.10;;
51995;SDS011;38010;53.264;6.592;2023-07-08T04:54:13;0.20;;;0.20;;
51995;SDS011;38010;53.264;6.592;2023-07-08T04:59:25;0.20;;;0.20;;
51995;SDS011;38010;53.264;6.592;2023-07-08T05:01:51;0.10;;;0.10;;
51995;SDS011;38010;53.264;6.592;2023-07-08T05:04:18;0.20;;;0.20;;
51995;SDS011;38010;53.264;6.592;2023-07-08T05:06:46;0.10;;;0.10;;
51995;SDS011;38010;53.264;6.592;2023-07-08T05:09:12;0.20;;;0.20;;
51995;SDS011;38010;53.264;6.592;2023-07-08T05:11:39;0.10;;;0.10;;
51995;SDS011;38010;53.264;6.592;2023-07-08T05:14:05;0.10;;;0.10;;
51995;SDS011;38010;53.264;6.592;2023-07-08T05:16:32;0.20;;;0.20;;
51995;SDS011;38010;53.264;6.592;2023-07-08T05:19:00;0.10;;;0.10;;
51995;SDS011;38010;53.264;6.592;2023-07-08T05:21:26;0.10;;;0.10;;
51995;SDS011;38010;53.264;6.592;2023-07-08T05:23:55;0.20;;;0.20;;
51995;SDS011;38010;53.264;6.592;2023-07-08T05:26:21;0.10;;;0.10;;
51995;SDS011;38010;53.264;6.592;2023-07-08T05:28:47;0.10;;;0.10;;
51995;SDS011;38010;53.264;6.592;2023-07-08T05:31:13;0.20;;;0.20;;
51995;SDS011;38010;53.264;6.592;2023-07-08T05:33:39;0.20;;;0.20;;
51995;SDS011;38010;53.264;6.592;2023-07-08T05:36:04;0.20;;;0.20;;
51995;SDS011;38010;53.264;6.592;2023-07-08T05:38:30;0.20;;;0.20;;
51995;SDS011;38010;53.264;6.592;2023-07-08T05:40:57;0.10;;;0.10;;
51995;SDS011;38010;53.264;6.592;2023-07-08T05:43:24;0.15;;;0.15;;
51995;SDS011;38010;53.264;6.592;2023-07-08T05:45:50;0.20;;;0.20;;
51995;SDS011;38010;53.264;6.592;2023-07-08T05:48:16;0.10;;;0.10;;
51995;SDS011;38010;53.264;6.592;2023-07-08T05:50:44;0.20;;;0.20;;
51995;SDS011;38010;53.264;6.592;2023-07-08T05:53:12;0.20;;;0.20;;
51995;SDS011;38010;53.264;6.592;2023-07-08T05:55:39;0.20;;;0.20;;
51995;SDS011;38010;53.264;6.592;2023-07-08T05:58:08;0.10;;;0.10;;
51995;SDS011;38010;53.264;6.592;2023-07-08T06:00:35;0.20;;;0.20;;
51995;SDS011;38010;53.264;6.592;2023-07-08T06:03:01;0.15;;;0.15;;
51995;SDS011;38010;53.264;6.592;2023-07-08T06:05:28;0.20;;;0.20;;
51995;SDS011;38010;53.264;6.592;2023-07-08T06:07:54;0.20;;;0.20;;
51995;SDS011;38010;53.264;6.592;2023-07-08T06:10:19;0.10;;;0.10;;
51995;SDS011;38010;53.264;6.592;2023-07-08T06:12:45;0.10;;;0.10;;
51995;SDS011;38010;53.264;6.592;2023-07-08T06:15:11;0.20;;;0.20;;
51995;SDS011;38010;53.264;6.592;2023-07-08T06:17:38;0.10;;;0.10;;
51995;SDS011;38010;53.264;6.592;2023-07-08T06:20:04;0.20;;;0.20;;
51995;SDS011;38010;53.264;6.592;2023-07-08T06:22:30;0.10;;;0.10;;
51995;SDS011;38010;53.264;6.592;2023-07-08T06:25:02;0.10;;;0.10;;
51995;SDS011;38010;53.264;6.592;2023-07-08T06:27:28;0.20;;;0.20;;
51995;SDS011;38010;53.264;6.592;2023-07-08T06:29:54;0.10;;;0.10;;
51995;SDS011;38010;53.264;6.592;2023-07-08T06:32:20;0.10;;;0.10;;
51995;SDS011;38010;53.264;6.592;2023-07-08T06:34:46;0.10;;;0.10;;
51995;SDS011;38010;53.264;6.592;2023-07-08T06:37:12;0.17;;;0.17;;
51995;SDS011;38010;53.264;6.592;2023-07-08T06:39:38;0.10;;;0.10;;
51995;SDS011;38010;53.264;6.592;2023-07-08T06:42:03;0.10;;;0.10;;
51995;SDS011;38010;53.264;6.592;2023-07-08T06:44:31;0.15;;;0.15;;
51995;SDS011;38010;53.264;6.592;2023-07-08T06:46:57;0.20;;;0.20;;
51995;SDS011;38010;53.264;6.592;2023-07-08T06:49:23;0.17;;;0.17;;
51995;SDS011;38010;53.264;6.592;2023-07-08T06:51:49;0.20;;;0.20;;
51995;SDS011;38010;53.264;6.592;2023-07-08T06:54:15;0.20;;;0.20;;
51995;SDS011;38010;53.264;6.592;2023-07-08T06:56:41;0.10;;;0.10;;
51995;SDS011;38010;53.264;6.592;2023-07-08T06:59:07;0.20;;;0.20;;
51995;SDS011;38010;53.264;6.592;2023-07-08T07:01:34;0.20;;;0.20;;
51995;SDS011;38010;53.264;6.592;2023-07-08T07:04:02;0.20;;;0.20;;
51995;SDS011;38010;53.264;6.592;2023-07-08T07:06:29;0.20;;;0.20;;
51995;SDS011;38010;53.264;6.592;2023-07-08T07:08:56;0.10;;;0.10;;
51995;SDS011;38010;53.264;6.592;2023-07-08T07:11:22;0.20;;;0.20;;
51995;SDS011;38010;53.264;6.592;2023-07-08T07:13:47;0.20;;;0.20;;
51995;SDS011;38010;53.264;6.592;2023-07-08T07:16:14;0.13;;;0.13;;
51995;SDS011;38010;53.264;6.592;2023-07-08T07:18:40;0.20;;;0.20;;
51995;SDS011;38010;53.264;6.592;2023-07-08T07:21:05;0.10;;;0.10;;
51995;SDS011;38010;53.264;6.592;2023-07-08T07:23:32;0.10;;;0.10;;
51995;SDS011;38010;53.264;6.592;2023-07-08T07:25:58;0.20;;;0.20;;
51995;SDS011;38010;53.264;6.592;2023-07-08T07:28:24;0.10;;;0.10;;
51995;SDS011;38010;53.264;6.592;2023-07-08T07:30:55;0.20;;;0.20;;
51995;SDS011;38010;53.264;6.592;2023-07-08T07:33:23;0.28;;;0.20;;
51995;SDS011;38010;53.264;6.592;2023-07-08T07:35:49;0.82;;;0.20;;
51995;SDS011;38010;53.264;6.592;2023-07-08T07:38:15;0.15;;;0.10;;
51995;SDS011;38010;53.264;6.592;2023-07-08T07:40:45;0.20;;;0.20;;
51995;SDS011;38010;53.264;6.592;2023-07-08T07:43:11;0.20;;;0.20;;
51995;SDS011;38010;53.264;6.592;2023-07-08T07:45:37;0.65;;;0.20;;
51995;SDS011;38010;53.264;6.592;2023-07-08T07:48:03;0.25;;;0.20;;
51995;SDS011;38010;53.264;6.592;2023-07-08T07:50:30;0.57;;;0.30;;
51995;SDS011;38010;53.264;6.592;2023-07-08T07:52:56;0.40;;;0.20;;
51995;SDS011;38010;53.264;6.592;2023-07-08T07:55:22;0.20;;;0.20;;
51995;SDS011;38010;53.264;6.592;2023-07-08T07:57:48;0.77;;;0.30;;
51995;SDS011;38010;53.264;6.592;2023-07-08T08:00:14;0.20;;;0.20;;
51995;SDS011;38010;53.264;6.592;2023-07-08T08:02:40;0.20;;;0.20;;
51995;SDS011;38010;53.264;6.592;2023-07-08T08:05:07;0.90;;;0.20;;
51995;SDS011;38010;53.264;6.592;2023-07-08T08:07:33;0.90;;;0.20;;
51995;SDS011;38010;53.264;6.592;2023-07-08T08:10:01;0.20;;;0.20;;
51995;SDS011;38010;53.264;6.592;2023-07-08T08:12:27;0.20;;;0.20;;
51995;SDS011;38010;53.264;6.592;2023-07-08T08:14:53;0.13;;;0.13;;
51995;SDS011;38010;53.264;6.592;2023-07-08T08:17:19;0.10;;;0.10;;
51995;SDS011;38010;53.264;6.592;2023-07-08T08:19:45;0.20;;;0.20;;
51995;SDS011;38010;53.264;6.592;2023-07-08T08:22:11;0.20;;;0.20;;
51995;SDS011;38010;53.264;6.592;2023-07-08T08:24:37;0.20;;;0.20;;
51995;SDS011;38010;53.264;6.592;2023-07-08T08:27:03;0.20;;;0.20;;
51995;SDS011;38010;53.264;6.592;2023-07-08T08:29:29;0.20;;;0.20;;
51995;SDS011;38010;53.264;6.592;2023-07-08T08:31:55;0.20;;;0.20;;
51995;SDS011;38010;53.264;6.592;2023-07-08T08:34:21;0.10;;;0.10;;
51995;SDS011;38010;53.264;6.592;2023-07-08T08:36:47;0.20;;;0.20;;
51995;SDS011;38010;53.264;6.592;2023-07-08T08:39:13;0.20;;;0.20;;
51995;SDS011;38010;53.264;6.592;2023-07-08T08:41:40;0.20;;;0.20;;
51995;SDS011;38010;53.264;6.592;2023-07-08T08:44:14;0.17;;;0.17;;
51995;SDS011;38010;53.264;6.592;2023-07-08T08:46:51;0.20;;;0.20;;
51995;SDS011;38010;53.264;6.592;2023-07-08T08:51:52;0.20;;;0.20;;
51995;SDS011;38010;53.264;6.592;2023-07-08T08:54:18;0.20;;;0.20;;
51995;SDS011;38010;53.264;6.592;2023-07-08T08:59:44;0.20;;;0.20;;
51995;SDS011;38010;53.264;6.592;2023-07-08T09:02:27;0.20;;;0.20;;
51995;SDS011;38010;53.264;6.592;2023-07-08T09:05:13;0.10;;;0.10;;
51995;SDS011;38010;53.264;6.592;2023-07-08T09:07:44;0.20;;;0.20;;
51995;SDS011;38010;53.264;6.592;2023-07-08T09:10:40;0.10;;;0.10;;
51995;SDS011;38010;53.264;6.592;2023-07-08T09:13:18;0.10;;;0.10;;
51995;SDS011;38010;53.264;6.592;2023-07-08T09:15:54;0.20;;;0.20;;
51995;SDS011;38010;53.264;6.592;2023-07-08T09:18:35;0.13;;;0.13;;
51995;SDS011;38010;53.264;6.592;2023-07-08T09:21:10;0.10;;;0.10;;
51995;SDS011;38010;53.264;6.592;2023-07-08T09:23:43;0.10;;;0.10;;
51995;SDS011;38010;53.264;6.592;2023-07-08T09:26:19;0.20;;;0.20;;
51995;SDS011;38010;53.264;6.592;2023-07-08T09:28:49;0.10;;;0.10;;
51995;SDS011;38010;53.264;6.592;2023-07-08T09:36:38;0.10;;;0.10;;
51995;SDS011;38010;53.264;6.592;2023-07-08T09:39:14;0.20;;;0.20;;
51995;SDS011;38010;53.264;6.592;2023-07-08T09:41:42;0.20;;;0.20;;
51995;SDS011;38010;53.264;6.592;2023-07-08T09:44:13;0.20;;;0.20;;
51995;SDS011;38010;53.264;6.592;2023-07-08T09:47:23;0.10;;;0.10;;
51995;SDS011;38010;53.264;6.592;2023-07-08T09:49:57;0.20;;;0.20;;
51995;SDS011;38010;53.264;6.592;2023-07-08T09:52:23;0.20;;;0.20;;
51995;SDS011;38010;53.264;6.592;2023-07-08T09:54:51;0.20;;;0.20;;
51995;SDS011;38010;53.264;6.592;2023-07-08T09:57:31;0.17;;;0.17;;
51995;SDS011;38010;53.264;6.592;2023-07-08T09:59:59;0.20;;;0.20;;
51995;SDS011;38010;53.264;6.592;2023-07-08T10:04:58;0.20;;;0.20;;
51995;SDS011;38010;53.264;6.592;2023-07-08T10:07:30;0.20;;;0.20;;
51995;SDS011;38010;53.264;6.592;2023-07-08T10:09:58;0.30;;;0.30;;
51995;SDS011;38010;53.264;6.592;2023-07-08T10:12:28;0.20;;;0.20;;
51995;SDS011;38010;53.264;6.592;2023-07-08T10:15:01;0.20;;;0.20;;
51995;SDS011;38010;53.264;6.592;2023-07-08T10:17:49;0.20;;;0.20;;
51995;SDS011;38010;53.264;6.592;2023-07-08T10:20:15;0.30;;;0.20;;
51995;SDS011;38010;53.264;6.592;2023-07-08T10:22:44;0.20;;;0.20;;
51995;SDS011;38010;53.264;6.592;2023-07-08T10:25:31;0.57;;;0.20;;
51995;SDS011;38010;53.264;6.592;2023-07-08T10:28:46;0.20;;;0.20;;
51995;SDS011;38010;53.264;6.592;2023-07-08T10:35:04;0.20;;;0.20;;
51995;SDS011;38010;53.264;6.592;2023-07-08T10:51:32;0.20;;;0.20;;
51995;SDS011;38010;53.264;6.592;2023-07-08T11:07:58;0.20;;;0.20;;
51995;SDS011;38010;53.264;6.592;2023-07-08T11:10:44;0.20;;;0.20;;
51995;SDS011;38010;53.264;6.592;2023-07-08T11:13:27;0.20;;;0.20;;
51995;SDS011;38010;53.264;6.592;2023-07-08T11:16:16;0.20;;;0.20;;
51995;SDS011;38010;53.264;6.592;2023-07-08T11:21:57;0.20;;;0.20;;
51995;SDS011;38010;53.264;6.592;2023-07-08T11:24:35;0.82;;;0.20;;
51995;SDS011;38010;53.264;6.592;2023-07-08T11:29:45;0.95;;;0.40;;
51995;SDS011;38010;53.264;6.592;2023-07-08T11:32:19;1.45;;;0.30;;
51995;SDS011;38010;53.264;6.592;2023-07-08T11:34:47;0.30;;;0.30;;
51995;SDS011;38010;53.264;6.592;2023-07-08T11:37:15;0.20;;;0.20;;
51995;SDS011;38010;53.264;6.592;2023-07-08T11:39:45;0.63;;;0.40;;
51995;SDS011;38010;53.264;6.592;2023-07-08T11:44:57;0.50;;;0.30;;
51995;SDS011;38010;53.264;6.592;2023-07-08T11:47:40;0.30;;;0.30;;
51995;SDS011;38010;53.264;6.592;2023-07-08T11:58:30;0.57;;;0.30;;
51995;SDS011;38010;53.264;6.592;2023-07-08T12:07:19;0.40;;;0.40;;
51995;SDS011;38010;53.264;6.592;2023-07-08T12:12:36;1.08;;;0.40;;
51995;SDS011;38010;53.264;6.592;2023-07-08T12:17:53;0.70;;;0.50;;
51995;SDS011;38010;53.264;6.592;2023-07-08T12:20:38;0.60;;;0.50;;
51995;SDS011;38010;53.264;6.592;2023-07-08T12:23:12;0.45;;;0.40;;
51995;SDS011;38010;53.264;6.592;2023-07-08T12:25:41;0.65;;;0.40;;
51995;SDS011;38010;53.264;6.592;2023-07-08T12:28:09;0.40;;;0.40;;
51995;SDS011;38010;53.264;6.592;2023-07-08T12:30:38;0.55;;;0.40;;
51995;SDS011;38010;53.264;6.592;2023-07-08T12:33:09;0.50;;;0.50;;
51995;SDS011;38010;53.264;6.592;2023-07-08T12:35:41;0.82;;;0.40;;
51995;SDS011;38010;53.264;6.592;2023-07-08T12:41:01;0.47;;;0.45;;
51995;SDS011;38010;53.264;6.592;2023-07-08T12:43:33;0.65;;;0.40;;
51995;SDS011;38010;53.264;6.592;2023-07-08T12:45:59;0.60;;;0.40;;
51995;SDS011;38010;53.264;6.592;2023-07-08T12:48:25;0.32;;;0.32;;
51995;SDS011;38010;53.264;6.592;2023-07-08T12:50:57;0.40;;;0.40;;
51995;SDS011;38010;53.264;6.592;2023-07-08T12:53:23;0.40;;;0.40;;
51995;SDS011;38010;53.264;6.592;2023-07-08T12:55:49;0.50;;;0.40;;
51995;SDS011;38010;53.264;6.592;2023-07-08T12:58:26;0.43;;;0.30;;
51995;SDS011;38010;53.264;6.592;2023-07-08T13:00:55;0.30;;;0.30;;
51995;SDS011;38010;53.264;6.592;2023-07-08T13:03:26;0.40;;;0.40;;
51995;SDS011;38010;53.264;6.592;2023-07-08T13:05:54;0.45;;;0.45;;
51995;SDS011;38010;53.264;6.592;2023-07-08T13:08:23;0.30;;;0.30;;
51995;SDS011;38010;53.264;6.592;2023-07-08T13:10:51;0.30;;;0.30;;
51995;SDS011;38010;53.264;6.592;2023-07-08T13:13:24;0.30;;;0.30;;
51995;SDS011;38010;53.264;6.592;2023-07-08T13:15:53;0.30;;;0.30;;
51995;SDS011;38010;53.264;6.592;2023-07-08T13:18:28;0.50;;;0.30;;
51995;SDS011;38010;53.264;6.592;2023-07-08T13:20:54;0.30;;;0.30;;
51995;SDS011;38010;53.264;6.592;2023-07-08T13:23:22;0.40;;;0.20;;
51995;SDS011;38010;53.264;6.592;2023-07-08T13:25:49;0.30;;;0.30;;
51995;SDS011;38010;53.264;6.592;2023-07-08T13:28:23;0.30;;;0.30;;
51995;SDS011;38010;53.264;6.592;2023-07-08T13:30:54;0.30;;;0.30;;
51995;SDS011;38010;53.264;6.592;2023-07-08T13:35:56;0.20;;;0.20;;
51995;SDS011;38010;53.264;6.592;2023-07-08T13:38:31;0.20;;;0.20;;
51995;SDS011;38010;53.264;6.592;2023-07-08T13:41:00;0.30;;;0.30;;
51995;SDS011;38010;53.264;6.592;2023-07-08T13:43:29;0.25;;;0.25;;
51995;SDS011;38010;53.264;6.592;2023-07-08T13:45:57;0.30;;;0.30;;
51995;SDS011;38010;53.264;6.592;2023-07-08T13:50:57;0.20;;;0.20;;
51995;SDS011;38010;53.264;6.592;2023-07-08T13:53:25;0.30;;;0.30;;
51995;SDS011;38010;53.264;6.592;2023-07-08T13:56:19;0.20;;;0.20;;
51995;SDS011;38010;53.264;6.592;2023-07-08T13:58:52;0.20;;;0.20;;
51995;SDS011;38010;53.264;6.592;2023-07-08T14:01:28;0.20;;;0.20;;
51995;SDS011;38010;53.264;6.592;2023-07-08T14:03:55;0.20;;;0.20;;
51995;SDS011;38010;53.264;6.592;2023-07-08T14:06:23;0.20;;;0.20;;
51995;SDS011;38010;53.264;6.592;2023-07-08T14:09:01;0.20;;;0.20;;
51995;SDS011;38010;53.264;6.592;2023-07-08T14:11:46;0.20;;;0.20;;
51995;SDS011;38010;53.264;6.592;2023-07-08T14:14:13;0.15;;;0.15;;
51995;SDS011;38010;53.264;6.592;2023-07-08T14:16:40;0.20;;;0.20;;
51995;SDS011;38010;53.264;6.592;2023-07-08T14:19:32;0.15;;;0.15;;
51995;SDS011;38010;53.264;6.592;2023-07-08T14:25:08;0.30;;;0.30;;
51995;SDS011;38010;53.264;6.592;2023-07-08T14:27:35;0.30;;;0.20;;
51995;SDS011;38010;53.264;6.592;2023-07-08T14:30:01;0.88;;;0.30;;
51995;SDS011;38010;53.264;6.592;2023-07-08T14:32:29;0.20;;;0.20;;
51995;SDS011;38010;53.264;6.592;2023-07-08T14:34:57;0.10;;;0.10;;
51995;SDS011;38010;53.264;6.592;2023-07-08T14:37:30;0.20;;;0.20;;
51995;SDS011;38010;53.264;6.592;2023-07-08T14:39:57;0.20;;;0.20;;
51995;SDS011;38010;53.264;6.592;2023-07-08T14:42:23;0.20;;;0.20;;
51995;SDS011;38010;53.264;6.592;2023-07-08T14:44:49;0.10;;;0.10;;
51995;SDS011;38010;53.264;6.592;2023-07-08T14:47:19;0.10;;;0.10;;
51995;SDS011;38010;53.264;6.592;2023-07-08T14:49:46;0.20;;;0.20;;
51995;SDS011;38010;53.264;6.592;2023-07-08T14:52:12;0.17;;;0.17;;
51995;SDS011;38010;53.264;6.592;2023-07-08T14:54:39;0.20;;;0.20;;
51995;SDS011;38010;53.264;6.592;2023-07-08T14:57:06;0.20;;;0.20;;
51995;SDS011;38010;53.264;6.592;2023-07-08T14:59:34;0.10;;;0.10;;
51995;SDS011;38010;53.264;6.592;2023-07-08T15:02:01;0.88;;;0.25;;
51995;SDS011;38010;53.264;6.592;2023-07-08T15:04:36;0.25;;;0.20;;
51995;SDS011;38010;53.264;6.592;2023-07-08T15:07:04;0.20;;;0.20;;
51995;SDS011;38010;53.264;6.592;2023-07-08T15:09:33;0.20;;;0.20;;
51995;SDS011;38010;53.264;6.592;2023-07-08T15:12:00;0.20;;;0.20;;
51995;SDS011;38010;53.264;6.592;2023-07-08T15:14:26;0.10;;;0.10;;
51995;SDS011;38010;53.264;6.592;2023-07-08T15:16:52;0.20;;;0.20;;
51995;SDS011;38010;53.264;6.592;2023-07-08T15:19:19;0.20;;;0.20;;
51995;SDS011;38010;53.264;6.592;2023-07-08T15:21:47;0.20;;;0.20;;
51995;SDS011;38010;53.264;6.592;2023-07-08T15:24:13;0.20;;;0.20;;
51995;SDS011;38010;53.264;6.592;2023-07-08T15:26:40;0.52;;;0.20;;
51995;SDS011;38010;53.264;6.592;2023-07-08T15:29:15;0.13;;;0.13;;
51995;SDS011;38010;53.264;6.592;2023-07-08T15:31:46;0.20;;;0.20;;
51995;SDS011;38010;53.264;6.592;2023-07-08T15:34:17;0.25;;;0.20;;
51995;SDS011;38010;53.264;6.592;2023-07-08T15:36:44;0.30;;;0.30;;
51995;SDS011;38010;53.264;6.592;2023-07-08T15:39:10;0.90;;;0.30;;
51995;SDS011;38010;53.264;6.592;2023-07-08T15:41:38;0.20;;;0.20;;
51995;SDS011;38010;53.264;6.592;2023-07-08T15:44:07;0.10;;;0.10;;
51995;SDS011;38010;53.264;6.592;2023-07-08T15:46:36;0.20;;;0.20;;
51995;SDS011;38010;53.264;6.592;2023-07-08T15:49:24;0.20;;;0.20;;
51995;SDS011;38010;53.264;6.592;2023-07-08T15:51:56;0.10;;;0.10;;
51995;SDS011;38010;53.264;6.592;2023-07-08T15:54:22;0.20;;;0.20;;
51995;SDS011;38010;53.264;6.592;2023-07-08T15:56:51;0.20;;;0.20;;
51995;SDS011;38010;53.264;6.592;2023-07-08T15:59:26;0.20;;;0.20;;
51995;SDS011;38010;53.264;6.592;2023-07-08T16:01:54;0.13;;;0.13;;
51995;SDS011;38010;53.264;6.592;2023-07-08T16:04:28;0.20;;;0.20;;
51995;SDS011;38010;53.264;6.592;2023-07-08T16:06:57;0.20;;;0.20;;
51995;SDS011;38010;53.264;6.592;2023-07-08T16:09:24;0.20;;;0.20;;
51995;SDS011;38010;53.264;6.592;2023-07-08T16:11:49;0.20;;;0.20;;
51995;SDS011;38010;53.264;6.592;2023-07-08T16:14:17;0.20;;;0.20;;
51995;SDS011;38010;53.264;6.592;2023-07-08T16:16:44;0.20;;;0.20;;
51995;SDS011;38010;53.264;6.592;2023-07-08T16:19:11;0.10;;;0.10;;
51995;SDS011;38010;53.264;6.592;2023-07-08T16:21:38;0.20;;;0.20;;
51995;SDS011;38010;53.264;6.592;2023-07-08T16:24:05;0.20;;;0.20;;
51995;SDS011;38010;53.264;6.592;2023-07-08T16:26:31;0.10;;;0.10;;